Time,TemperatureF,DewpointF,PressureIn,WindDirection,WindDirectionDegrees,WindSpeedMPH,WindSpeedGustMPH,Humidity,HourlyPrecipIn,Conditions,Clouds,dailyrainin,SoftwareType,DateUTC
2013-08-27 00:07:00,71.8,69.0,29.91,South,180,0.0,-999.0,91,-99.99,,,0.00,Acu-Link.com,2013-08-27 04:07:00,
2013-08-27 00:22:00,72.0,69.2,29.91,South,180,0.0,-999.0,91,-99.99,,,0.00,Acu-Link.com,2013-08-27 04:22:00,
2013-08-27 00:37:00,71.6,68.8,29.91,South,180,0.0,-999.0,91,-99.99,,,0.00,Acu-Link.com,2013-08-27 04:37:00,
2013-08-27 00:53:00,71.8,69.3,29.92,North,0,1.7,-999.0,92,-99.99,,,0.00,Acu-Link.com,2013-08-27 04:53:00,
2013-08-27 01:08:00,71.4,68.6,29.91,ENE,67,0.0,-999.0,91,-99.99,,,0.00,Acu-Link.com,2013-08-27 05:08:00,
2013-08-27 01:23:00,71.8,69.3,29.91,NE,45,0.0,-999.0,92,-99.99,,,0.00,Acu-Link.com,2013-08-27 05:23:00,
2013-08-27 01:38:00,72.0,69.5,29.90,North,0,0.0,-999.0,92,-99.99,,,0.00,Acu-Link.com,2013-08-27 05:38:00,
2013-08-27 01:54:00,71.8,69.3,29.89,NNE,22,0.0,-999.0,92,-99.99,,,0.00,Acu-Link.com,2013-08-27 05:54:00,
2013-08-27 02:09:00,71.8,69.3,29.89,North,0,0.0,-999.0,92,-99.99,,,0.00,Acu-Link.com,2013-08-27 06:09:00,
2013-08-27 02:24:00,72.0,69.5,29.89,South,180,0.0,-999.0,92,-99.99,,,0.00,Acu-Link.com,2013-08-27 06:24:00,
2013-08-27 02:40:00,71.6,69.1,29.88,North,0,0.0,-999.0,92,-99.99,,,0.00,Acu-Link.com,2013-08-27 06:40:00,
2013-08-27 02:55:00,71.2,68.8,29.88,North,0,0.0,-999.0,92,-99.99,,,0.00,Acu-Link.com,2013-08-27 06:55:00,
2013-08-27 03:10:00,71.6,69.1,29.88,North,0,0.0,-999.0,92,-99.99,,,0.00,Acu-Link.com,2013-08-27 07:10:00,
2013-08-27 03:25:00,71.4,68.9,29.88,North,0,0.0,-999.0,92,-99.99,,,0.00,Acu-Link.com,2013-08-27 07:25:00,
2013-08-27 03:41:00,70.9,68.5,29.88,North,0,0.0,-999.0,92,-99.99,,,0.00,Acu-Link.com,2013-08-27 07:41:00,
2013-08-27 03:56:00,70.7,68.3,29.87,North,0,0.0,-999.0,92,-99.99,,,0.00,Acu-Link.com,2013-08-27 07:56:00,
2013-08-27 04:15:00,70.7,68.3,29.87,North,0,0.0,-999.0,92,-99.99,,,0.00,Acu-Link.com,2013-08-27 08:15:00,
2013-08-27 04:30:00,70.5,68.1,29.87,North,0,0.0,-999.0,92,-99.99,,,0.00,Acu-Link.com,2013-08-27 08:30:00,
2013-08-27 04:45:00,70.3,67.9,29.87,North,0,0.0,-999.0,92,-99.99,,,0.00,Acu-Link.com,2013-08-27 08:45:00,
2013-08-27 05:01:00,70.2,67.8,29.86,NNE,22,0.0,-999.0,92,-99.99,,,0.00,Acu-Link.com,2013-08-27 09:01:00,
2013-08-27 05:16:00,69.6,67.2,29.87,NNE,22,0.0,-999.0,92,-99.99,,,0.00,Acu-Link.com,2013-08-27 09:16:00,
2013-08-27 05:31:00,69.4,67.0,29.87,North,0,0.0,-999.0,92,-99.99,,,0.00,Acu-Link.com,2013-08-27 09:31:00,
2013-08-27 05:47:00,69.1,66.7,29.87,North,0,0.0,-999.0,92,-99.99,,,0.00,Acu-Link.com,2013-08-27 09:47:00,
2013-08-27 06:02:00,68.9,66.8,29.87,North,0,0.0,-999.0,93,-99.99,,,0.00,Acu-Link.com,2013-08-27 10:02:00,
2013-08-27 06:17:00,68.5,66.4,29.87,North,0,0.0,-999.0,93,-99.99,,,0.00,Acu-Link.com,2013-08-27 10:17:00,
2013-08-27 06:32:00,68.0,65.9,29.88,North,0,0.0,-999.0,93,-99.99,,,0.00,Acu-Link.com,2013-08-27 10:32:00,
2013-08-27 06:47:00,67.8,65.7,29.87,NNE,22,0.0,-999.0,93,-99.99,,,0.00,Acu-Link.com,2013-08-27 10:47:00,
2013-08-27 07:02:00,67.6,65.5,29.88,North,0,0.0,-999.0,93,-99.99,,,0.00,Acu-Link.com,2013-08-27 11:02:00,
2013-08-27 07:18:00,68.0,65.9,29.88,NE,45,2.2,-999.0,93,-99.99,,,0.00,Acu-Link.com,2013-08-27 11:18:00,
2013-08-27 07:33:00,69.4,67.3,29.88,NNW,337,0.0,-999.0,93,-99.99,,,0.00,Acu-Link.com,2013-08-27 11:33:00,
2013-08-27 07:48:00,70.2,68.1,29.89,North,0,1.7,-999.0,93,-99.99,,,0.00,Acu-Link.com,2013-08-27 11:48:00,
2013-08-27 08:04:00,71.4,68.9,29.88,East,90,0.0,-999.0,92,-99.99,,,0.00,Acu-Link.com,2013-08-27 12:04:00,
2013-08-27 08:19:00,73.4,69.6,29.88,NE,45,2.2,-999.0,88,-99.99,,,0.00,Acu-Link.com,2013-08-27 12:19:00,
2013-08-27 08:34:00,76.6,71.4,29.89,NNE,22,2.2,-999.0,84,-99.99,,,0.00,Acu-Link.com,2013-08-27 12:34:00,
2013-08-27 08:50:00,77.5,71.2,29.88,WNW,292,0.0,-999.0,81,-99.99,,,0.00,Acu-Link.com,2013-08-27 12:50:00,
2013-08-27 09:05:00,81.0,73.1,29.89,NNE,22,1.7,-999.0,77,-99.99,,,0.00,Acu-Link.com,2013-08-27 13:05:00,
2013-08-27 09:21:00,84.9,73.6,29.88,NE,45,1.7,-999.0,69,-99.99,,,0.00,Acu-Link.com,2013-08-27 13:21:00,
2013-08-27 09:36:00,85.8,73.5,29.88,NE,45,3.7,-999.0,67,-99.99,,,0.00,Acu-Link.com,2013-08-27 13:36:00,
2013-08-27 09:51:00,79.5,72.0,29.88,North,0,2.2,-999.0,78,-99.99,,,0.00,Acu-Link.com,2013-08-27 13:51:00,
2013-08-27 10:06:00,79.7,71.1,29.88,WNW,292,2.2,-999.0,75,-99.99,,,0.00,Acu-Link.com,2013-08-27 14:06:00,
2013-08-27 10:21:00,80.8,71.7,29.87,WNW,292,2.2,-999.0,74,-99.99,,,0.00,Acu-Link.com,2013-08-27 14:21:00,
2013-08-27 10:37:00,81.5,69.9,29.88,SSE,157,0.0,-999.0,68,-99.99,,,0.00,Acu-Link.com,2013-08-27 14:37:00,
2013-08-27 10:52:00,81.1,69.1,29.88,ENE,67,1.7,-999.0,67,-99.99,,,0.00,Acu-Link.com,2013-08-27 14:52:00,
2013-08-27 11:07:00,82.9,69.4,29.88,NNW,337,7.3,-999.0,64,-99.99,,,0.00,Acu-Link.com,2013-08-27 15:07:00,
2013-08-27 11:22:00,79.9,68.8,29.88,WNW,292,3.7,-999.0,69,-99.99,,,0.00,Acu-Link.com,2013-08-27 15:22:00,
2013-08-27 11:37:00,81.7,67.4,29.87,NE,45,3.2,-999.0,62,-99.99,,,0.00,Acu-Link.com,2013-08-27 15:37:00,
2013-08-27 11:53:00,82.8,66.0,29.86,NE,45,3.2,-999.0,57,-99.99,,,0.00,Acu-Link.com,2013-08-27 15:53:00,
2013-08-27 12:08:00,83.3,65.4,29.87,East,90,3.7,-999.0,55,-99.99,,,0.00,Acu-Link.com,2013-08-27 16:08:00,
2013-08-27 12:23:00,82.8,66.0,29.87,WNW,292,4.7,-999.0,57,-99.99,,,0.00,Acu-Link.com,2013-08-27 16:23:00,
2013-08-27 12:39:00,82.0,66.7,29.86,NW,315,0.0,-999.0,60,-99.99,,,0.00,Acu-Link.com,2013-08-27 16:39:00,
2013-08-27 12:54:00,83.3,65.4,29.85,NNE,22,2.2,-999.0,55,-99.99,,,0.00,Acu-Link.com,2013-08-27 16:54:00,
2013-08-27 13:09:00,82.0,66.7,29.85,WNW,292,2.7,-999.0,60,-99.99,,,0.00,Acu-Link.com,2013-08-27 17:09:00,
2013-08-27 13:25:00,83.8,68.4,29.85,NNE,22,2.7,-999.0,60,-99.99,,,0.00,Acu-Link.com,2013-08-27 17:25:00,
2013-08-27 13:40:00,84.4,65.9,29.84,ENE,67,0.0,-999.0,54,-99.99,,,0.00,Acu-Link.com,2013-08-27 17:40:00,
2013-08-27 13:56:00,83.5,69.1,29.84,ESE,112,4.2,-999.0,62,-99.99,,,0.00,Acu-Link.com,2013-08-27 17:56:00,
2013-08-27 14:11:00,82.4,68.5,29.83,ESE,112,4.2,-999.0,63,-99.99,,,0.00,Acu-Link.com,2013-08-27 18:11:00,
2013-08-27 14:26:00,83.3,68.4,29.83,East,90,2.7,-999.0,61,-99.99,,,0.00,Acu-Link.com,2013-08-27 18:26:00,
2013-08-27 14:41:00,84.4,69.5,29.82,SW,225,2.7,-999.0,61,-99.99,,,0.00,Acu-Link.com,2013-08-27 18:41:00,
2013-08-27 14:56:00,83.8,68.9,29.81,WSW,247,3.7,-999.0,61,-99.99,,,0.00,Acu-Link.com,2013-08-27 18:56:00,
2013-08-27 15:12:00,82.6,69.2,29.81,West,270,3.7,-999.0,64,-99.99,,,0.00,Acu-Link.com,2013-08-27 19:12:00,
2013-08-27 15:27:00,82.9,70.3,29.80,ESE,112,2.2,-999.0,66,-99.99,,,0.00,Acu-Link.com,2013-08-27 19:27:00,
2013-08-27 15:42:00,82.9,69.4,29.80,SSW,202,2.7,-999.0,64,-99.99,,,0.00,Acu-Link.com,2013-08-27 19:42:00,
2013-08-27 15:58:00,83.5,70.0,29.80,SW,225,3.7,-999.0,64,-99.99,,,0.00,Acu-Link.com,2013-08-27 19:58:00,
2013-08-27 16:13:00,82.9,69.9,29.80,SE,135,2.7,-999.0,65,-99.99,,,0.00,Acu-Link.com,2013-08-27 20:13:00,
2013-08-27 16:28:00,82.8,70.3,29.80,West,270,3.7,-999.0,66,-99.99,,,0.00,Acu-Link.com,2013-08-27 20:28:00,
2013-08-27 16:43:00,82.4,70.3,29.80,ENE,67,0.0,-999.0,67,-99.99,,,0.00,Acu-Link.com,2013-08-27 20:43:00,
2013-08-27 16:58:00,83.1,71.0,29.79,NNW,337,2.7,-999.0,67,-99.99,,,0.00,Acu-Link.com,2013-08-27 20:58:00,
2013-08-27 18:00:00,82.0,70.4,29.79,ESE,112,2.7,-999.0,68,-99.99,,,0.00,Acu-Link.com,2013-08-27 22:00:00,
2013-08-27 18:16:00,86.9,71.3,29.80,ENE,67,1.7,-999.0,60,-99.99,,,0.00,Acu-Link.com,2013-08-27 22:16:00,
2013-08-27 18:31:00,87.4,70.8,29.79,SSW,202,1.7,-999.0,58,-99.99,,,0.00,Acu-Link.com,2013-08-27 22:31:00,
2013-08-27 18:46:00,84.2,69.3,29.79,SE,135,1.7,-999.0,61,-99.99,,,0.00,Acu-Link.com,2013-08-27 22:46:00,
2013-08-27 19:02:00,84.4,69.9,29.79,East,90,1.7,-999.0,62,-99.99,,,0.00,Acu-Link.com,2013-08-27 23:02:00,
2013-08-27 19:17:00,82.9,69.0,29.79,WSW,247,0.0,-999.0,63,-99.99,,,0.00,Acu-Link.com,2013-08-27 23:17:00,
2013-08-27 19:32:00,80.8,68.8,29.79,South,180,1.1,-999.0,67,-99.99,,,0.00,Acu-Link.com,2013-08-27 23:32:00,
2013-08-27 19:47:00,79.2,69.0,29.79,SSE,157,2.2,-999.0,71,-99.99,,,0.00,Acu-Link.com,2013-08-27 23:47:00,
2013-08-27 20:02:00,77.7,68.7,29.79,ESE,112,2.2,-999.0,74,-99.99,,,0.00,Acu-Link.com,2013-08-28 00:02:00,
2013-08-27 20:18:00,77.0,68.8,29.79,East,90,0.0,-999.0,76,-99.99,,,0.00,Acu-Link.com,2013-08-28 00:18:00,
2013-08-27 20:33:00,76.1,69.5,29.79,East,90,0.0,-999.0,80,-99.99,,,0.00,Acu-Link.com,2013-08-28 00:33:00,
2013-08-27 20:48:00,75.0,68.8,29.79,West,270,0.0,-999.0,81,-99.99,,,0.00,Acu-Link.com,2013-08-28 00:48:00,
2013-08-27 21:03:00,74.5,69.0,29.79,South,180,0.0,-999.0,83,-99.99,,,0.00,Acu-Link.com,2013-08-28 01:03:00,
2013-08-27 21:18:00,73.9,68.8,29.80,SE,135,0.0,-999.0,84,-99.99,,,0.00,Acu-Link.com,2013-08-28 01:18:00,
2013-08-27 21:34:00,73.4,67.9,29.80,South,180,0.0,-999.0,83,-99.99,,,0.00,Acu-Link.com,2013-08-28 01:34:00,
2013-08-27 21:49:00,73.0,67.9,29.81,ESE,112,0.0,-999.0,84,-99.99,,,0.00,Acu-Link.com,2013-08-28 01:49:00,
2013-08-27 22:04:00,72.7,67.6,29.81,ESE,112,0.0,-999.0,84,-99.99,,,0.00,Acu-Link.com,2013-08-28 02:04:00,
2013-08-27 22:20:00,72.5,67.4,29.81,ESE,112,0.0,-999.0,84,-99.99,,,0.00,Acu-Link.com,2013-08-28 02:20:00,
2013-08-27 22:35:00,72.3,67.2,29.81,SSE,157,0.0,-999.0,84,-99.99,,,0.00,Acu-Link.com,2013-08-28 02:35:00,
2013-08-27 23:06:00,72.1,67.3,29.82,SSW,202,0.0,-999.0,85,-99.99,,,0.00,Acu-Link.com,2013-08-28 03:06:00,
2013-08-27 23:21:00,71.8,67.7,29.81,East,90,0.0,-999.0,87,-99.99,,,0.00,Acu-Link.com,2013-08-28 03:21:00,
2013-08-27 23:36:00,71.4,67.3,29.81,West,270,0.0,-999.0,87,-99.99,,,0.00,Acu-Link.com,2013-08-28 03:36:00,
2013-08-27 23:52:00,71.2,67.1,29.81,WNW,292,0.0,-999.0,87,-99.99,,,0.00,Acu-Link.com,2013-08-28 03:52:00,